Time;durP1;ratioP1;P1;durP2;ratioP2;P2;SDS_P1;SDS_P2;PMS_P1;PMS_P2;Temp;Humidity;BMP_temperature;BMP_pressure;BME280_temperature;BME280_humidity;BME280_pressure;Samples;Min_cycle;Max_cycle;Signal;HPM_P1;HPM_P2
2021/04/23 00:00:57;;;;;;;2.10;0.70;;;6.30;63.20;;;;;;4897408;29;20052;-72
2021/04/23 00:03:41;;;;;;;1.20;0.60;;;6.40;63.40;;;;;;4882481;29;20494;-72
2021/04/23 00:06:22;;;;;;;;;;;6.30;63.40;;;;;;4888609;29;20044;-72
2021/04/23 00:08:55;;;;;;;1.60;0.50;;;6.30;63.30;;;;;;4892066;29;19927;-73
2021/04/23 00:11:33;;;;;;;1.90;0.60;;;6.20;63.50;;;;;;4870614;29;20052;-72
2021/04/23 00:14:00;;;;;;;1.30;0.50;;;6.20;63.60;;;;;;4891646;29;20045;-72
2021/04/23 00:16:27;;;;;;;3.67;0.70;;;6.20;63.70;;;;;;4869972;29;20136;-72
2021/04/23 00:18:54;;;;;;;2.30;0.57;;;6.20;63.70;;;;;;4894908;29;20065;-72
2021/04/23 00:21:22;;;;;;;1.80;0.50;;;6.20;63.80;;;;;;4881805;29;20041;-72
2021/04/23 00:23:50;;;;;;;3.07;0.57;;;6.20;63.90;;;;;;4863982;29;20053;-72
2021/04/23 00:26:18;;;;;;;2.80;1.23;;;6.20;64.00;;;;;;4881582;29;20053;-72
2021/04/23 00:28:45;;;;;;;1.33;0.47;;;6.20;64.30;;;;;;4860881;29;20044;-72
2021/04/23 00:31:13;;;;;;;1.27;0.40;;;6.20;64.20;;;;;;4879910;29;20048;-72
2021/04/23 00:33:40;;;;;;;3.90;0.70;;;6.20;64.20;;;;;;4897067;29;20040;-72
2021/04/23 00:36:07;;;;;;;1.87;0.67;;;6.20;64.30;;;;;;4897159;29;20064;-72
2021/04/23 00:38:37;;;;;;;3.40;0.53;;;6.10;64.40;;;;;;4882318;29;20044;-72
2021/04/23 00:41:06;;;;;;;2.63;0.50;;;6.10;64.60;;;;;;4888444;29;20037;-72
2021/04/23 00:43:38;;;;;;;1.77;0.50;;;6.10;64.90;;;;;;4865661;29;20068;-72
2021/04/23 00:46:05;;;;;;;1.77;0.70;;;6.10;64.90;;;;;;4887500;29;20121;-72
2021/04/23 00:48:41;;;;;;;2.23;0.60;;;6.10;64.90;;;;;;4893878;29;20045;-72
2021/04/23 00:51:12;;;;;;;1.60;0.50;;;6.10;64.90;;;;;;4875610;29;20501;-72
2021/04/23 00:53:44;;;;;;;2.47;0.63;;;6.10;65.10;;;;;;4898520;29;20041;-73
2021/04/23 00:56:14;;;;;;;1.50;0.30;;;6.00;65.10;;;;;;4890693;29;20041;-72
2021/04/23 00:58:42;;;;;;;2.53;0.80;;;6.00;65.20;;;;;;4889409;29;20461;-72
2021/04/23 01:01:19;;;;;;;2.37;0.90;;;6.00;65.90;;;;;;4875450;29;20144;-72
2021/04/23 01:03:46;;;;;;;2.40;0.40;;;6.00;65.40;;;;;;4881440;29;20056;-72
2021/04/23 01:06:17;;;;;;;0.87;0.30;;;5.90;65.40;;;;;;4849729;29;20516;-72
2021/04/23 01:08:46;;;;;;;1.80;0.30;;;5.90;65.50;;;;;;4897118;29;20382;-72
2021/04/23 01:11:15;;;;;;;3.10;0.50;;;5.90;65.60;;;;;;4866731;29;20053;-72
2021/04/23 01:13:42;;;;;;;1.53;0.53;;;5.90;65.80;;;;;;4889241;29;20105;-72
2021/04/23 01:16:15;;;;;;;1.50;0.40;;;5.80;65.80;;;;;;4894671;29;20048;-72
2021/04/23 01:18:43;;;;;;;0.93;0.40;;;5.80;65.90;;;;;;4897647;29;20108;-72
2021/04/23 01:21:17;;;;;;;2.53;0.50;;;5.80;66.00;;;;;;4877364;29;20079;-72
2021/04/23 01:23:44;;;;;;;;;;;5.70;66.00;;;;;;4866319;29;20053;-72
2021/04/23 01:26:13;;;;;;;2.47;0.70;;;5.70;66.00;;;;;;4868370;29;19931;-72
2021/04/23 01:28:42;;;;;;;2.00;0.30;;;5.70;66.20;;;;;;4885615;29;20047;-72
2021/04/23 01:31:12;;;;;;;1.60;0.40;;;5.60;66.20;;;;;;4880472;29;20144;-72
2021/04/23 01:33:41;;;;;;;1.10;0.37;;;5.60;66.30;;;;;;4875930;29;20033;-72
2021/04/23 01:36:09;;;;;;;0.67;0.30;;;5.50;66.40;;;;;;4874231;29;20052;-72
2021/04/23 01:38:39;;;;;;;2.47;0.30;;;5.50;66.50;;;;;;4897046;29;20092;-72
2021/04/23 01:41:06;;;;;;;0.90;0.30;;;5.50;66.70;;;;;;4883108;29;20115;-72
2021/04/23 01:43:34;;;;;;;2.83;0.60;;;5.40;66.70;;;;;;4895625;29;20053;-72
2021/04/23 01:46:04;;;;;;;1.23;0.40;;;5.40;66.80;;;;;;4879656;29;20104;-72
2021/04/23 01:48:31;;;;;;;1.70;0.30;;;5.30;66.90;;;;;;4875128;29;20465;-72
2021/04/23 01:50:59;;;;;;;1.63;0.30;;;5.30;67.00;;;;;;4896359;29;20748;-72
2021/04/23 01:53:26;;;;;;;2.40;0.50;;;5.30;67.10;;;;;;4875029;29;20393;-72
2021/04/23 01:55:53;;;;;;;1.47;0.37;;;5.20;67.20;;;;;;4908457;29;20104;-72
2021/04/23 01:58:20;;;;;;;3.63;0.57;;;5.20;67.30;;;;;;4879976;29;20074;-72
2021/04/23 02:00:49;;;;;;;1.23;0.40;;;5.10;67.40;;;;;;4895935;29;20592;-72
2021/04/23 02:03:18;;;;;;;2.57;0.53;;;5.10;67.50;;;;;;4878989;29;20052;-72
2021/04/23 02:05:48;;;;;;;1.20;0.50;;;5.10;67.60;;;;;;4889016;29;20119;-72
2021/04/23 02:08:17;;;;;;;1.33;0.40;;;5.10;67.70;;;;;;4878660;29;20174;-72
2021/04/23 02:10:58;;;;;;;2.60;0.60;;;5.00;67.70;;;;;;4878824;29;20049;-72
2021/04/23 02:13:27;;;;;;;3.13;0.60;;;5.00;67.80;;;;;;4873662;29;20104;-72
2021/04/23 02:15:56;;;;;;;1.10;0.37;;;5.00;67.90;;;;;;4879995;29;20497;-72
2021/04/23 02:18:25;;;;;;;1.13;0.30;;;5.00;67.90;;;;;;4886352;29;20044;-72
2021/04/23 02:20:52;;;;;;;2.20;0.60;;;5.00;68.00;;;;;;4877776;29;20049;-72
2021/04/23 02:23:20;;;;;;;2.80;0.40;;;4.90;68.00;;;;;;4877181;29;20104;-72
2021/04/23 02:25:49;;;;;;;1.40;0.43;;;4.90;68.10;;;;;;4864823;29;20508;-72
2021/04/23 02:28:17;;;;;;;2.97;0.60;;;4.90;68.20;;;;;;4890743;29;20409;-72
2021/04/23 02:30:55;;;;;;;2.40;0.60;;;4.80;68.20;;;;;;4866940;29;20104;-72
2021/04/23 02:33:23;;;;;;;1.47;0.50;;;4.90;68.40;;;;;;4892067;29;20077;-72
2021/04/23 02:35:52;;;;;;;1.57;0.60;;;4.80;68.40;;;;;;4883558;29;20052;-72
2021/04/23 02:38:19;;;;;;;2.90;0.87;;;4.80;68.40;;;;;;4867504;29;20048;-72
2021/04/23 02:40:46;;;;;;;2.40;0.93;;;4.80;68.40;;;;;;4884586;29;20068;-72
2021/04/23 02:43:23;;;;;;;3.40;0.40;;;4.80;68.50;;;;;;4870521;29;20596;-72
2021/04/23 02:45:51;;;;;;;1.77;0.50;;;4.80;68.60;;;;;;4882449;29;20048;-72
2021/04/23 02:48:21;;;;;;;1.83;0.40;;;4.80;68.60;;;;;;4872145;29;20056;-72
2021/04/23 02:50:56;;;;;;;1.17;0.70;;;4.70;68.60;;;;;;4878926;29;20451;-72
2021/04/23 02:53:23;;;;;;;1.03;0.27;;;4.70;68.70;;;;;;4891101;29;20052;-72
2021/04/23 02:55:49;;;;;;;1.83;0.40;;;4.70;68.80;;;;;;4860626;29;20056;-72
2021/04/23 02:58:19;;;;;;;3.23;0.73;;;4.60;68.80;;;;;;4887509;29;20498;-72
2021/04/23 03:00:51;;;;;;;1.53;0.50;;;4.60;68.90;;;;;;4886079;29;20434;-72
2021/04/23 03:03:19;;;;;;;2.90;0.43;;;4.60;69.00;;;;;;4890734;29;20048;-72
2021/04/23 03:05:47;;;;;;;1.30;0.33;;;4.60;69.00;;;;;;4859346;29;20063;-72
2021/04/23 03:08:14;;;;;;;2.10;0.50;;;4.60;69.10;;;;;;4872063;29;20116;-72
2021/04/23 03:10:44;;;;;;;1.30;0.33;;;4.60;69.10;;;;;;4873363;29;20112;-72
2021/04/23 03:13:18;;;;;;;1.10;0.43;;;4.60;69.20;;;;;;4866554;29;20493;-72
2021/04/23 03:15:45;;;;;;;1.40;0.30;;;4.60;69.30;;;;;;4888885;29;20052;-72
2021/04/23 03:18:15;;;;;;;1.77;0.40;;;4.50;69.30;;;;;;4870375;29;20470;-72
2021/04/23 03:20:42;;;;;;;1.00;0.43;;;4.50;69.30;;;;;;4892588;29;20048;-72
2021/04/23 03:23:09;;;;;;;1.00;0.40;;;4.50;69.40;;;;;;4890709;29;20547;-72
2021/04/23 03:25:36;;;;;;;4.03;0.40;;;4.50;69.50;;;;;;4893518;29;20536;-72
2021/04/23 03:28:04;;;;;;;2.67;0.63;;;4.40;69.80;;;;;;4892799;29;20108;-72
2021/04/23 03:30:34;;;;;;;3.03;0.80;;;4.40;69.90;;;;;;4887251;29;20044;-72
2021/04/23 03:33:02;;;;;;;1.50;0.53;;;4.40;70.00;;;;;;4878241;29;20052;-72
2021/04/23 03:35:29;;;;;;;1.63;0.63;;;4.40;70.00;;;;;;4896634;29;20043;-72
2021/04/23 03:37:58;;;;;;;1.67;0.47;;;4.30;70.00;;;;;;4860863;29;20105;-72
2021/04/23 03:40:28;;;;;;;2.53;0.40;;;4.30;70.10;;;;;;4883962;29;20045;-72
2021/04/23 03:42:55;;;;;;;1.40;0.40;;;4.30;70.70;;;;;;4876453;29;20120;-72
2021/04/23 03:45:23;;;;;;;2.37;0.50;;;4.30;70.20;;;;;;4896547;29;20037;-72
2021/04/23 03:47:51;;;;;;;3.83;0.77;;;4.30;70.30;;;;;;4886265;29;20123;-72
2021/04/23 03:50:21;;;;;;;2.93;0.50;;;4.30;70.40;;;;;;4877578;29;20045;-72
2021/04/23 03:52:48;;;;;;;4.33;1.00;;;4.30;70.50;;;;;;4869578;29;20048;-72
2021/04/23 03:55:20;;;;;;;1.30;0.60;;;4.30;70.40;;;;;;4879723;29;20056;-72
2021/04/23 03:57:47;;;;;;;2.28;0.50;;;4.30;70.50;;;;;;4873082;29;20530;-72
2021/04/23 04:00:19;;;;;;;2.03;0.67;;;4.30;70.60;;;;;;4898287;29;20509;-72
2021/04/23 04:02:46;;;;;;;1.93;0.40;;;4.20;70.60;;;;;;4886944;29;20044;-72
2021/04/23 04:05:13;;;;;;;2.10;0.50;;;4.20;70.60;;;;;;4866983;29;20048;-73
2021/04/23 04:07:40;;;;;;;2.33;0.53;;;4.30;70.70;;;;;;4898526;29;20109;-73
2021/04/23 04:10:08;;;;;;;1.57;0.67;;;4.20;70.70;;;;;;4895907;29;20049;-71
2021/04/23 04:12:35;;;;;;;6.33;0.80;;;4.20;70.80;;;;;;4889696;29;20048;-72
2021/04/23 04:15:02;;;;;;;2.30;0.60;;;4.20;70.80;;;;;;4897505;29;20060;-72
2021/04/23 04:17:29;;;;;;;0.97;0.50;;;4.20;70.90;;;;;;4881433;29;20053;-72
2021/04/23 04:19:56;;;;;;;2.30;0.60;;;4.30;71.00;;;;;;4888882;29;20045;-71
2021/04/23 04:22:23;;;;;;;2.00;0.63;;;4.30;70.90;;;;;;4891280;29;20050;-72
2021/04/23 04:24:49;;;;;;;2.07;0.60;;;4.30;70.80;;;;;;4894991;29;20052;-72
2021/04/23 04:27:16;;;;;;;3.20;0.87;;;4.40;70.70;;;;;;4896252;29;20059;-72
2021/04/23 04:29:45;;;;;;;2.77;1.10;;;4.40;70.90;;;;;;4891295;29;20319;-72
2021/04/23 04:32:15;;;;;;;2.20;0.60;;;4.50;71.00;;;;;;4890175;29;20047;-72
2021/04/23 04:34:42;;;;;;;3.30;0.83;;;4.60;70.80;;;;;;4892265;29;20105;-73
2021/04/23 04:37:09;;;;;;;2.40;0.67;;;4.60;70.70;;;;;;4896719;29;20473;-72
2021/04/23 04:39:37;;;;;;;2.27;0.70;;;4.70;70.70;;;;;;4894142;29;20060;-72
2021/04/23 04:42:05;;;;;;;3.07;0.80;;;4.70;70.80;;;;;;4874804;29;20577;-72
2021/04/23 04:44:33;;;;;;;1.70;0.60;;;4.70;70.70;;;;;;4897724;29;20156;-72
2021/04/23 04:47:01;;;;;;;2.27;0.63;;;4.80;70.80;;;;;;4882186;29;20072;-72
2021/04/23 04:49:28;;;;;;;1.83;0.80;;;4.80;70.80;;;;;;4877577;29;20408;-72
2021/04/23 04:51:55;;;;;;;2.67;0.60;;;4.80;70.80;;;;;;4893452;29;20460;-73
2021/04/23 04:54:22;;;;;;;4.00;0.87;;;4.80;70.80;;;;;;4893602;29;20041;-72
2021/04/23 04:56:48;;;;;;;2.83;0.70;;;4.90;70.90;;;;;;4881745;29;20127;-72
2021/04/23 04:59:15;;;;;;;2.13;0.63;;;4.90;70.90;;;;;;4864024;29;20040;-73
2021/04/23 05:01:41;;;;;;;3.47;0.70;;;4.90;70.90;;;;;;4871373;29;20108;-73
2021/04/23 05:04:08;;;;;;;1.90;0.70;;;5.00;71.00;;;;;;4862966;29;20049;-73
2021/04/23 05:06:34;;;;;;;1.93;0.97;;;5.00;70.90;;;;;;4872927;29;20048;-71
2021/04/23 05:09:01;;;;;;;3.97;1.20;;;5.10;70.80;;;;;;4884474;29;20053;-71
2021/04/23 05:11:27;;;;;;;3.97;0.90;;;5.20;70.80;;;;;;4891215;29;20040;-71
2021/04/23 05:13:57;;;;;;;3.93;1.00;;;5.30;70.90;;;;;;4864651;29;20045;-71
2021/04/23 05:16:23;;;;;;;3.17;1.00;;;5.30;70.90;;;;;;4893632;29;20512;-70
2021/04/23 05:18:50;;;;;;;2.30;1.00;;;5.40;70.80;;;;;;4896022;29;20043;-72
2021/04/23 05:21:17;;;;;;;3.70;0.87;;;5.50;70.70;;;;;;4891155;29;20120;-72
2021/04/23 05:23:44;;;;;;;1.90;0.67;;;5.50;70.60;;;;;;4893884;29;20523;-72
2021/04/23 05:26:11;;;;;;;2.60;0.90;;;5.60;70.60;;;;;;4881054;29;20048;-70
2021/04/23 05:28:37;;;;;;;3.17;0.60;;;5.70;70.50;;;;;;4894251;29;20064;-70
2021/04/23 05:31:04;;;;;;;1.93;0.90;;;5.80;70.50;;;;;;4864528;29;20056;-70
2021/04/23 05:33:31;;;;;;;3.97;0.70;;;5.80;70.40;;;;;;4876820;29;20398;-70
2021/04/23 05:35:58;;;;;;;2.03;0.50;;;5.90;70.40;;;;;;4896259;29;20512;-73
2021/04/23 05:38:24;;;;;;;1.80;0.60;;;6.00;70.30;;;;;;4866105;29;20482;-73
2021/04/23 05:40:51;;;;;;;2.73;0.80;;;6.10;70.30;;;;;;4879333;29;20064;-73
2021/04/23 05:43:18;;;;;;;1.90;0.50;;;6.20;70.20;;;;;;4894939;29;21520;-73
2021/04/23 05:45:48;;;;;;;2.00;0.63;;;6.30;70.10;;;;;;4877497;29;20051;-73
2021/04/23 05:48:18;;;;;;;2.53;0.60;;;6.40;70.10;;;;;;4889574;29;20037;-71
2021/04/23 05:50:46;;;;;;;2.77;0.70;;;6.50;70.00;;;;;;4895135;29;20040;-70
2021/04/23 05:53:14;;;;;;;3.17;0.83;;;6.60;69.90;;;;;;4880133;29;20061;-70
2021/04/23 05:55:40;;;;;;;3.50;1.00;;;6.60;69.80;;;;;;4887140;29;20697;-70
2021/04/23 05:58:08;;;;;;;2.93;1.00;;;6.60;69.90;;;;;;4896966;29;20059;-70
2021/04/23 06:00:36;;;;;;;2.00;0.80;;;6.60;69.80;;;;;;4897494;29;20049;-71
2021/04/23 06:03:07;;;;;;;3.47;0.80;;;6.70;69.80;;;;;;4885898;29;20041;-70
2021/04/23 06:05:34;;;;;;;2.80;0.50;;;6.80;69.70;;;;;;4891057;29;20049;-70
2021/04/23 06:08:03;;;;;;;3.37;0.70;;;6.90;69.60;;;;;;4894700;29;20072;-71
2021/04/23 06:10:31;;;;;;;1.70;0.63;;;7.00;69.60;;;;;;4889876;29;20048;-71
2021/04/23 06:12:58;;;;;;;2.77;1.10;;;7.10;70.10;;;;;;4880671;29;20056;-70
2021/04/23 06:15:26;;;;;;;1.63;0.50;;;7.20;69.50;;;;;;4897267;29;20037;-70
2021/04/23 06:17:54;;;;;;;1.77;0.70;;;7.20;69.40;;;;;;4896206;29;20036;-70
2021/04/23 06:20:24;;;;;;;1.87;0.60;;;7.30;69.30;;;;;;4888883;29;20043;-70
2021/04/23 06:22:51;;;;;;;2.50;0.50;;;7.40;69.20;;;;;;4870747;29;20049;-73
2021/04/23 06:25:18;;;;;;;2.20;0.60;;;7.40;69.10;;;;;;4880867;29;20044;-73
2021/04/23 06:27:47;;;;;;;1.30;0.33;;;7.50;69.00;;;;;;4879286;29;20091;-70
2021/04/23 06:30:17;;;;;;;4.70;0.87;;;7.60;69.50;;;;;;4888701;29;20059;-70
2021/04/23 06:32:44;;;;;;;6.67;1.30;;;7.60;68.90;;;;;;4874411;29;20041;-70
2021/04/23 06:35:15;;;;;;;3.27;0.90;;;7.60;68.90;;;;;;4879291;29;20063;-71
2021/04/23 06:37:42;;;;;;;3.47;0.87;;;7.60;68.90;;;;;;4874592;29;20033;-72
2021/04/23 06:40:09;;;;;;;3.87;0.90;;;7.70;68.90;;;;;;4880631;29;20064;-72
2021/04/23 06:42:36;;;;;;;2.40;0.67;;;7.80;68.80;;;;;;4880052;29;20104;-73
2021/04/23 06:45:12;;;;;;;2.53;0.50;;;7.80;68.70;;;;;;4862091;29;20059;-73
2021/04/23 06:47:39;;;;;;;2.17;0.77;;;7.90;68.50;;;;;;4895513;29;20040;-73
2021/04/23 06:50:08;;;;;;;5.33;0.83;;;8.00;68.30;;;;;;4892971;29;20072;-73
2021/04/23 06:52:37;;;;;;;3.63;0.70;;;8.00;68.20;;;;;;4896352;29;20112;-71
2021/04/23 06:55:09;;;;;;;3.00;0.80;;;8.10;68.20;;;;;;4889598;29;20037;-71
2021/04/23 06:57:36;;;;;;;1.57;0.50;;;8.10;68.10;;;;;;4879398;29;20049;-75
2021/04/23 07:00:06;;;;;;;3.30;0.73;;;8.20;67.90;;;;;;4867049;29;20405;-70
2021/04/23 07:02:33;;;;;;;2.73;0.50;;;8.30;67.70;;;;;;4874061;29;20108;-71
2021/04/23 07:05:01;;;;;;;1.67;0.40;;;8.40;67.60;;;;;;4864812;29;20501;-74
2021/04/23 07:07:27;;;;;;;0.93;0.33;;;8.50;67.40;;;;;;4891942;29;20071;-73
2021/04/23 07:09:54;;;;;;;2.40;0.50;;;8.60;67.20;;;;;;4868444;29;20045;-75
2021/04/23 07:12:20;;;;;;;2.80;0.50;;;8.70;67.00;;;;;;4880134;29;20055;-74
2021/04/23 07:14:47;;;;;;;2.10;0.40;;;8.80;66.90;;;;;;4880180;29;20520;-74
2021/04/23 07:17:14;;;;;;;3.00;0.53;;;8.90;66.60;;;;;;4880347;29;20047;-74
2021/04/23 07:19:41;;;;;;;2.87;0.40;;;9.00;66.60;;;;;;4876157;29;20519;-74
2021/04/23 07:22:08;;;;;;;2.33;0.63;;;9.00;66.30;;;;;;4891805;29;20075;-72
2021/04/23 07:24:35;;;;;;;4.45;0.80;;;9.00;66.10;;;;;;4895694;29;20052;-74
2021/04/23 07:27:02;;;;;;;2.53;0.50;;;9.00;66.10;;;;;;4894997;29;20052;-73
2021/04/23 07:29:42;;;;;;;3.87;0.60;;;9.00;66.10;;;;;;4879286;29;20048;-74
2021/04/23 07:32:09;;;;;;;4.23;0.50;;;9.10;66.10;;;;;;4879947;29;20041;-74
2021/04/23 07:34:36;;;;;;;2.40;0.80;;;9.10;66.00;;;;;;4880171;29;20060;-74
2021/04/23 07:37:03;;;;;;;1.70;0.30;;;9.10;65.90;;;;;;4866890;29;20055;-74
2021/04/23 07:39:31;;;;;;;2.73;0.90;;;9.20;65.80;;;;;;4875486;29;20044;-73
2021/04/23 07:42:01;;;;;;;2.57;0.37;;;9.20;65.50;;;;;;4891482;29;20056;-72
2021/04/23 07:44:29;;;;;;;2.85;0.20;;;9.40;65.30;;;;;;4892939;29;20391;-73
2021/04/23 07:46:56;;;;;;;3.55;0.30;;;9.40;65.00;;;;;;4885755;29;20041;-72
2021/04/23 07:49:22;;;;;;;2.33;0.40;;;9.50;64.80;;;;;;4866096;29;20064;-74
2021/04/23 07:51:50;;;;;;;2.17;0.43;;;9.50;64.60;;;;;;4869873;29;20053;-72
2021/04/23 07:54:16;;;;;;;1.80;0.30;;;9.50;64.50;;;;;;4893727;29;20096;-72
2021/04/23 07:56:43;;;;;;;1.75;0.30;;;9.60;64.50;;;;;;4883762;29;20073;-72
2021/04/23 07:59:09;;;;;;;1.13;0.20;;;9.60;64.20;;;;;;4861183;29;20116;-73
2021/04/23 08:01:36;;;;;;;1.37;0.70;;;9.80;64.00;;;;;;4850866;29;20048;-72
2021/04/23 08:04:03;;;;;;;0.87;0.30;;;10.00;63.70;;;;;;4865348;29;20045;-73
2021/04/23 08:06:31;;;;;;;0.77;0.20;;;10.10;63.30;;;;;;4876468;29;20096;-71
2021/04/23 08:08:59;;;;;;;1.65;0.20;;;10.40;63.10;;;;;;4884382;29;20068;-72
2021/04/23 08:11:26;;;;;;;0.77;0.30;;;10.60;62.70;;;;;;4880697;29;20040;-72
2021/04/23 08:13:53;;;;;;;1.70;0.20;;;10.80;62.10;;;;;;4869878;29;20045;-73
2021/04/23 08:16:20;;;;;;;2.05;0.40;;;11.10;61.70;;;;;;4870233;29;20044;-73
2021/04/23 08:18:52;;;;;;;1.38;0.30;;;11.10;61.20;;;;;;4892247;29;20433;-73
2021/04/23 08:21:19;;;;;;;4.78;0.73;;;11.00;61.00;;;;;;4896201;29;20458;-73
2021/04/23 08:23:47;;;;;;;4.10;0.52;;;10.90;60.90;;;;;;4875272;29;20063;-74
2021/04/23 08:26:15;;;;;;;3.10;0.45;;;10.70;60.80;;;;;;4886404;29;20576;-74
2021/04/23 08:28:42;;;;;;;2.78;0.50;;;10.50;60.90;;;;;;4892626;29;20056;-73
2021/04/23 08:31:09;;;;;;;0.90;0.32;;;10.50;61.20;;;;;;4884384;29;20132;-73
2021/04/23 08:33:36;;;;;;;2.15;0.30;;;10.50;61.20;;;;;;4897421;29;20041;-74
2021/04/23 08:36:04;;;;;;;1.35;0.20;;;10.50;61.00;;;;;;4877849;29;20152;-74
2021/04/23 08:38:30;;;;;;;1.52;0.30;;;10.60;61.00;;;;;;4865084;29;20465;-71
2021/04/23 08:40:57;;;;;;;1.45;0.22;;;10.70;60.80;;;;;;4863768;29;20037;-72
2021/04/23 08:43:27;;;;;;;0.93;0.20;;;10.80;60.60;;;;;;4891019;29;20072;-73
2021/04/23 08:45:54;;;;;;;2.03;0.30;;;10.90;60.40;;;;;;4878681;29;20049;-73
2021/04/23 08:48:22;;;;;;;3.42;0.50;;;10.90;60.10;;;;;;4881356;29;20048;-73
2021/04/23 08:50:49;;;;;;;3.08;0.55;;;10.70;59.40;;;;;;4856564;29;20436;-73
2021/04/23 08:53:17;;;;;;;3.45;0.40;;;10.50;59.30;;;;;;4892261;29;20049;-73
2021/04/23 08:55:44;;;;;;;4.10;0.85;;;10.60;59.60;;;;;;4892027;29;20041;-73
2021/04/23 08:58:14;;;;;;;5.03;0.82;;;10.60;59.30;;;;;;4874656;29;20378;-73
2021/04/23 09:00:41;;;;;;;2.60;0.40;;;10.70;59.20;;;;;;4872869;29;20389;-71
2021/04/23 09:03:11;;;;;;;1.48;0.35;;;11.00;59.10;;;;;;4873952;29;20080;-72
2021/04/23 09:05:39;;;;;;;2.92;0.57;;;11.20;58.80;;;;;;4891554;29;20516;-71
2021/04/23 09:08:08;;;;;;;2.58;0.65;;;11.20;58.20;;;;;;4895140;29;20059;-71
2021/04/23 09:10:38;;;;;;;3.13;0.40;;;11.10;58.40;;;;;;4877841;29;20114;-72
2021/04/23 09:13:16;;;;;;;1.55;0.45;;;11.10;58.70;;;;;;4893438;29;20040;-72
2021/04/23 09:15:46;;;;;;;4.05;0.57;;;11.20;58.60;;;;;;4873064;29;20053;-71
2021/04/23 09:18:17;;;;;;;2.45;0.50;;;11.30;58.10;;;;;;4897141;29;20052;-71
2021/04/23 09:20:46;;;;;;;1.93;0.60;;;11.40;58.10;;;;;;4870583;29;20056;-70
2021/04/23 09:23:20;;;;;;;2.72;1.20;;;11.50;57.80;;;;;;4878214;29;20516;-70
2021/04/23 09:25:55;;;;;;;1.67;0.47;;;11.40;57.40;;;;;;4868836;29;20044;-71
2021/04/23 09:28:38;;;;;;;1.45;0.30;;;11.30;57.60;;;;;;4872405;29;20049;-72
2021/04/23 09:31:38;;;;;;;2.10;0.55;;;11.20;57.70;;;;;;4889219;29;20140;-72
2021/04/23 09:34:06;;;;;;;1.88;0.40;;;11.40;57.60;;;;;;4844292;29;20069;-72
2021/04/23 09:36:40;;;;;;;1.30;0.40;;;11.40;57.60;;;;;;4891405;29;20053;-72
2021/04/23 09:39:12;;;;;;;1.90;0.73;;;11.50;57.30;;;;;;4893398;29;20450;-72
2021/04/23 09:41:40;;;;;;;1.70;0.30;;;11.40;57.20;;;;;;4871484;29;20121;-72
2021/04/23 09:44:26;;;;;;;2.10;0.25;;;11.40;57.30;;;;;;4871573;29;20053;-73
2021/04/23 09:47:03;;;;;;;7.82;0.50;;;11.60;57.20;;;;;;4888543;29;20135;-70
2021/04/23 09:49:31;;;;;;;1.35;0.45;;;11.70;56.70;;;;;;4871075;29;20057;-71
2021/04/23 09:52:00;;;;;;;3.30;0.47;;;11.70;56.60;;;;;;4885596;29;20108;-71
2021/04/23 09:54:27;;;;;;;0.95;0.40;;;11.80;56.30;;;;;;4879980;29;20029;-70
2021/04/23 09:56:55;;;;;;;1.98;0.47;;;11.80;56.30;;;;;;4875265;29;20065;-70
2021/04/23 09:59:24;;;;;;;4.20;0.50;;;12.00;56.30;;;;;;4896438;29;20104;-72
2021/04/23 10:01:56;;;;;;;1.83;0.30;;;12.10;56.10;;;;;;4889144;29;20037;-73
2021/04/23 10:04:34;;;;;;;1.85;0.55;;;12.10;55.70;;;;;;4875160;29;20665;-74
2021/04/23 10:07:13;;;;;;;3.40;0.90;;;12.20;55.60;;;;;;4874901;29;20036;-73
2021/04/23 10:10:05;;;;;;;4.05;0.73;;;12.20;55.20;;;;;;4897721;29;20045;-75
2021/04/23 10:12:35;;;;;;;1.35;0.50;;;12.10;55.40;;;;;;4888045;29;20041;-75
2021/04/23 10:15:09;;;;;;;1.38;0.40;;;12.00;55.60;;;;;;4894525;29;20039;-75
2021/04/23 10:17:36;;;;;;;2.85;0.40;;;11.90;55.60;;;;;;4865697;29;20037;-74
2021/04/23 10:20:05;;;;;;;1.17;0.50;;;12.00;55.50;;;;;;4895451;29;20051;-75
2021/04/23 10:22:32;;;;;;;1.48;0.32;;;12.30;55.20;;;;;;4878300;29;20390;-76
2021/04/23 10:24:59;;;;;;;1.25;0.30;;;12.60;54.60;;;;;;4852711;29;20044;-74
2021/04/23 10:27:26;;;;;;;3.17;0.40;;;12.90;54.10;;;;;;4871556;29;20045;-74
2021/04/23 10:29:54;;;;;;;2.15;0.45;;;12.80;53.90;;;;;;4889100;29;20060;-74
2021/04/23 10:32:22;;;;;;;2.85;0.47;;;12.90;53.80;;;;;;4890847;29;20044;-76
2021/04/23 10:34:49;;;;;;;1.45;0.40;;;13.30;53.30;;;;;;4876322;29;20045;-76
2021/04/23 10:37:16;;;;;;;1.65;0.38;;;13.60;52.80;;;;;;4854735;29;20120;-75
2021/04/23 10:39:47;;;;;;;3.45;0.68;;;13.80;52.30;;;;;;4870378;29;20477;-76
2021/04/23 10:42:40;;;;;;;2.83;0.70;;;13.90;51.20;;;;;;4874469;29;20048;-76
2021/04/23 10:45:26;;;;;;;;;;;14.10;50.70;;;;;;4876008;29;20402;-75
2021/04/23 10:47:56;;;;;;;5.07;0.75;;;14.10;50.60;;;;;;4861233;29;19928;-76
2021/04/23 10:50:38;;;;;;;2.85;0.73;;;14.40;50.20;;;;;;4886196;29;20557;-76
2021/04/23 10:53:10;;;;;;;3.15;0.52;;;14.80;50.00;;;;;;4889680;29;20032;-76
2021/04/23 10:55:50;;;;;;;2.10;0.70;;;15.00;49.40;;;;;;4878751;29;20044;-76
2021/04/23 10:58:24;;;;;;;2.25;0.65;;;15.30;49.10;;;;;;4874629;29;20036;-76
2021/04/23 11:01:14;;;;;;;1.90;0.40;;;15.50;48.80;;;;;;4877898;29;20044;-75
2021/04/23 11:03:42;;;;;;;3.80;0.60;;;15.10;49.30;;;;;;4869247;29;20109;-75
2021/04/23 11:06:12;;;;;;;4.28;0.70;;;14.80;49.30;;;;;;4897320;29;20413;-73
2021/04/23 11:08:58;;;;;;;1.65;0.50;;;14.70;49.80;;;;;;4872293;29;20052;-74
2021/04/23 11:11:26;;;;;;;2.22;0.60;;;14.30;50.30;;;;;;4861316;29;20492;-75
2021/04/23 11:13:53;;;;;;;1.80;0.63;;;14.00;51.30;;;;;;4892532;29;20059;-75
2021/04/23 11:16:23;;;;;;;2.85;0.63;;;13.90;51.00;;;;;;4875137;29;20040;-73
2021/04/23 11:18:55;;;;;;;1.38;0.47;;;13.90;50.90;;;;;;4873424;29;20052;-74
2021/04/23 11:21:31;;;;;;;3.03;0.60;;;13.90;50.80;;;;;;4872992;29;20056;-72
2021/04/23 11:24:07;;;;;;;2.25;0.57;;;13.70;51.50;;;;;;4876413;29;20048;-73
2021/04/23 11:26:52;;;;;;;1.70;0.52;;;14.50;50.20;;;;;;4889422;29;20049;-73
2021/04/23 11:29:36;;;;;;;1.10;0.40;;;15.60;48.50;;;;;;4866972;29;20056;-73
2021/04/23 11:32:25;;;;;;;2.75;0.47;;;16.40;47.20;;;;;;4881136;29;20087;-71
2021/04/23 11:34:58;;;;;;;2.13;0.40;;;17.00;46.30;;;;;;4878637;29;20049;-72
2021/04/23 11:37:42;;;;;;;3.60;0.60;;;17.20;45.60;;;;;;4872866;29;20562;-72
2021/04/23 11:40:12;;;;;;;2.35;0.35;;;17.40;45.00;;;;;;4891699;29;20425;-72
2021/04/23 11:42:40;;;;;;;2.63;0.60;;;17.30;45.20;;;;;;4876069;29;20116;-72
2021/04/23 11:45:11;;;;;;;1.95;0.50;;;17.60;44.80;;;;;;4869813;29;20068;-71
2021/04/23 11:47:40;;;;;;;1.02;0.30;;;18.00;44.70;;;;;;4872713;29;20426;-70
2021/04/23 11:50:15;;;;;;;1.30;0.50;;;18.30;44.30;;;;;;4893000;29;20063;-72
2021/04/23 11:52:57;;;;;;;1.38;0.63;;;18.70;44.00;;;;;;4869813;29;20075;-71
2021/04/23 11:55:26;;;;;;;1.77;0.40;;;18.20;43.90;;;;;;4884587;29;20044;-71
2021/04/23 11:58:12;;;;;;;3.40;0.70;;;17.30;44.80;;;;;;4878133;29;20056;-72
2021/04/23 12:00:44;;;;;;;2.40;0.60;;;16.40;45.30;;;;;;4866535;29;20489;-71
2021/04/23 12:03:13;;;;;;;1.98;0.55;;;16.30;46.30;;;;;;4889289;29;20138;-71
2021/04/23 12:05:55;;;;;;;1.33;0.40;;;17.30;45.60;;;;;;4894523;29;20115;-70
2021/04/23 12:08:27;;;;;;;1.35;0.30;;;18.00;44.40;;;;;;4871071;29;20497;-70
2021/04/23 12:10:56;;;;;;;2.25;0.45;;;17.60;45.40;;;;;;4855611;29;20045;-71
2021/04/23 12:13:32;;;;;;;4.55;0.60;;;17.10;45.50;;;;;;4887801;29;20457;-72
2021/04/23 12:16:01;;;;;;;2.63;0.55;;;16.60;46.10;;;;;;4885503;29;20041;-72
2021/04/23 12:18:29;;;;;;;2.35;0.47;;;16.20;46.90;;;;;;4867037;29;20112;-73
2021/04/23 12:20:59;;;;;;;3.53;0.50;;;15.70;47.10;;;;;;4893552;29;20048;-71
2021/04/23 12:23:29;;;;;;;2.78;0.50;;;15.40;47.70;;;;;;4882898;29;20473;-75
2021/04/23 12:25:58;;;;;;;3.05;0.35;;;15.40;48.10;;;;;;4892696;29;20048;-74
2021/04/23 12:28:38;;;;;;;3.70;0.60;;;15.60;48.20;;;;;;4899723;29;20512;-75
2021/04/23 12:31:17;;;;;;;2.70;0.40;;;15.80;47.90;;;;;;4899929;29;20505;-75
2021/04/23 12:34:02;;;;;;;3.05;0.73;;;15.90;47.70;;;;;;4883069;29;20049;-74
2021/04/23 12:36:36;;;;;;;3.78;0.50;;;16.00;47.50;;;;;;4883000;29;20127;-74
2021/04/23 12:39:05;;;;;;;3.28;0.35;;;16.10;47.50;;;;;;4899270;29;20097;-75
2021/04/23 12:41:37;;;;;;;2.47;0.45;;;16.20;47.50;;;;;;4889416;29;20076;-74
2021/04/23 12:44:07;;;;;;;4.40;0.65;;;16.30;47.30;;;;;;4880442;29;20426;-73
2021/04/23 12:46:49;;;;;;;2.45;0.57;;;16.20;47.20;;;;;;4863471;29;20061;-72
2021/04/23 12:49:19;;;;;;;1.98;0.40;;;16.20;47.30;;;;;;4878555;29;20056;-73
2021/04/23 12:51:50;;;;;;;4.07;0.60;;;16.10;47.50;;;;;;4880002;29;20059;-73
2021/04/23 12:54:19;;;;;;;2.65;0.50;;;16.00;47.50;;;;;;4863306;29;20037;-73
2021/04/23 12:56:54;;;;;;;4.22;0.75;;;15.90;47.70;;;;;;4878763;29;20045;-72
2021/04/23 12:59:40;;;;;;;4.45;0.57;;;16.00;47.80;;;;;;4879658;29;20106;-72
2021/04/23 13:02:09;;;;;;;1.33;0.60;;;16.00;47.40;;;;;;4879678;29;20048;-73
2021/04/23 13:04:36;;;;;;;4.00;0.55;;;16.00;47.60;;;;;;4879680;29;20060;-72
2021/04/23 13:07:15;;;;;;;1.58;0.40;;;16.00;47.70;;;;;;4863577;29;20076;-75